Time;durP1;ratioP1;P1;durP2;ratioP2;P2;SDS_P1;SDS_P2;PMS_P1;PMS_P2;Temp;Humidity;BMP_temperature;BMP_pressure;BME280_temperature;BME280_humidity;BME280_pressure;Samples;Min_cycle;Max_cycle;Signal;HPM_P1;HPM_P2
2021/04/21 00:02:24;;;;;;;3.87;1.20;;;12.00;24.60;;;;;;4373143;32;20517;-37
2021/04/21 00:04:51;;;;;;;1.30;0.70;;;11.90;24.80;;;;;;4374488;32;20521;-37
2021/04/21 00:07:19;;;;;;;2.78;0.60;;;11.90;24.70;;;;;;4373189;32;20059;-37
2021/04/21 00:09:49;;;;;;;3.53;1.00;;;12.00;24.50;;;;;;4374125;32;20050;-36
2021/04/21 00:12:16;;;;;;;2.83;0.93;;;12.00;24.70;;;;;;4372898;32;20070;-36
2021/04/21 00:14:45;;;;;;;2.33;0.80;;;12.00;24.70;;;;;;4372895;32;20193;-35
2021/04/21 00:17:12;;;;;;;4.25;1.05;;;12.00;24.70;;;;;;4373232;32;20077;-37
2021/04/21 00:19:39;;;;;;;2.85;1.25;;;12.00;24.70;;;;;;4372716;32;20579;-37
2021/04/21 00:22:07;;;;;;;1.85;0.95;;;12.00;24.70;;;;;;4373014;32;20151;-37
2021/04/21 00:24:36;;;;;;;2.42;0.75;;;12.10;24.60;;;;;;4372893;32;20171;-39
2021/04/21 00:27:02;;;;;;;3.53;0.93;;;12.00;24.50;;;;;;4372786;32;20065;-36
2021/04/21 00:29:29;;;;;;;10.43;2.03;;;12.00;24.70;;;;;;4372280;32;20080;-36
2021/04/21 00:31:57;;;;;;;4.95;1.40;;;11.90;24.90;;;;;;4360091;32;20082;-36
2021/04/21 00:34:24;;;;;;;4.20;1.48;;;11.80;25.00;;;;;;4360117;32;20462;-36
2021/04/21 00:36:53;;;;;;;1.48;0.80;;;11.80;25.10;;;;;;4360460;32;20072;-37
2021/04/21 00:39:20;;;;;;;2.83;0.90;;;11.60;25.30;;;;;;4372610;32;20073;-37
2021/04/21 00:42:52;;;;;;;6.87;1.70;;;11.60;25.10;;;;;;4360120;32;20070;-35
2021/04/21 00:45:20;;;;;;;7.00;1.55;;;11.70;25.20;;;;;;4297387;33;20647;-36
2021/04/21 00:48:21;;;;;;;5.85;0.90;;;11.70;25.00;;;;;;4297939;33;20083;-35
2021/04/21 00:50:54;;;;;;;8.50;1.33;;;11.60;25.20;;;;;;4297645;33;20119;-37
2021/04/21 00:53:48;;;;;;;18.87;2.03;;;11.50;25.00;;;;;;4297500;33;20080;-35
2021/04/21 00:56:45;;;;;;;6.87;1.00;;;11.50;25.30;;;;;;4287644;33;20149;-38
2021/04/21 00:59:32;;;;;;;1.92;0.50;;;11.40;25.20;;;;;;4285438;33;20080;-38
2021/04/21 01:01:58;;;;;;;2.33;0.75;;;11.40;25.30;;;;;;4297537;33;20469;-37
2021/04/21 01:04:25;;;;;;;20.27;1.98;;;11.50;25.20;;;;;;4273382;33;20134;-36
2021/04/21 01:06:52;;;;;;;1.45;0.73;;;11.50;25.10;;;;;;4285520;33;20081;-37
2021/04/21 01:09:19;;;;;;;40.00;3.00;;;11.50;25.20;;;;;;4285177;33;20084;-37
2021/04/21 01:11:53;;;;;;;1.50;0.75;;;11.50;25.20;;;;;;4285286;33;20602;-37
2021/04/21 01:14:28;;;;;;;4.68;1.20;;;11.40;25.10;;;;;;4273904;33;20103;-37
2021/04/21 01:17:01;;;;;;;3.17;1.10;;;11.40;25.20;;;;;;4308029;33;20071;-38
2021/04/21 01:19:55;;;;;;;1.95;0.55;;;11.40;25.30;;;;;;4287907;33;20084;-37
2021/04/21 01:22:48;;;;;;;5.25;1.35;;;11.40;25.10;;;;;;4373627;32;20065;-36
2021/04/21 01:25:55;;;;;;;5.90;1.30;;;11.50;25.20;;;;;;4372332;32;20073;-38
2021/04/21 01:28:25;;;;;;;6.28;1.00;;;11.30;25.20;;;;;;4371806;32;20054;-36
2021/04/21 01:30:52;;;;;;;6.47;0.75;;;11.30;25.10;;;;;;4359265;32;20066;-38
2021/04/21 01:33:21;;;;;;;12.80;1.48;;;11.30;25.40;;;;;;4359293;32;20069;-36
2021/04/21 01:36:01;;;;;;;7.97;0.98;;;11.40;24.80;;;;;;4371679;32;20540;-36
2021/04/21 01:38:28;;;;;;;11.50;1.83;;;11.40;24.90;;;;;;4371635;32;20173;-37
2021/04/21 01:40:58;;;;;;;3.20;0.62;;;11.40;25.00;;;;;;4340640;33;20106;-38
2021/04/21 01:43:37;;;;;;;5.35;1.17;;;11.50;24.90;;;;;;4328785;33;20067;-37
2021/04/21 01:46:03;;;;;;;3.90;0.70;;;11.60;24.80;;;;;;4328589;33;20744;-37
2021/04/21 01:48:33;;;;;;;2.50;0.50;;;11.70;24.60;;;;;;4316679;33;20086;-37
2021/04/21 01:51:09;;;;;;;4.90;0.80;;;11.70;24.70;;;;;;4328711;33;20158;-37
2021/04/21 01:53:40;;;;;;;9.98;1.35;;;11.70;24.70;;;;;;4328466;33;20511;-39
2021/04/21 01:56:18;;;;;;;9.23;1.30;;;11.70;24.70;;;;;;4341053;33;20070;-36
2021/04/21 01:59:21;;;;;;;7.78;1.70;;;11.70;24.70;;;;;;4340720;33;20083;-39
2021/04/21 02:01:56;;;;;;;12.45;1.30;;;11.60;24.60;;;;;;4340650;33;20141;-39
2021/04/21 02:05:03;;;;;;;4.43;0.60;;;11.70;24.60;;;;;;4340681;33;20077;-37
2021/04/21 02:08:14;;;;;;;1.10;0.52;;;11.70;24.60;;;;;;4329357;33;20077;-38
2021/04/21 02:11:06;;;;;;;1.15;0.75;;;11.80;24.60;;;;;;4328716;33;20240;-39
2021/04/21 02:14:14;;;;;;;2.80;1.17;;;11.70;24.60;;;;;;4371289;32;20097;-37
2021/04/21 02:17:49;;;;;;;0.93;0.50;;;11.60;24.60;;;;;;4372256;32;20098;-38
2021/04/21 02:20:33;;;;;;;1.37;0.60;;;11.70;24.60;;;;;;4335117;32;20089;-38
2021/04/21 02:23:40;;;;;;;0.98;0.47;;;11.60;24.60;;;;;;4371263;32;20058;-37
2021/04/21 02:26:32;;;;;;;1.92;0.70;;;11.60;24.70;;;;;;4359677;32;20108;-36
2021/04/21 02:29:26;;;;;;;3.12;0.62;;;11.60;24.60;;;;;;4374012;32;20063;-38
2021/04/21 02:32:27;;;;;;;2.25;0.88;;;11.70;24.60;;;;;;4371645;32;20541;-35
2021/04/21 02:34:59;;;;;;;5.10;0.47;;;11.60;24.70;;;;;;4371275;32;20070;-38
2021/04/21 02:37:52;;;;;;;4.07;0.80;;;11.50;24.60;;;;;;4372646;32;20207;-38
2021/04/21 02:40:38;;;;;;;1.98;0.80;;;11.60;24.60;;;;;;4372059;32;20058;-37
2021/04/21 02:43:42;;;;;;;1.30;0.55;;;11.70;24.60;;;;;;4372883;32;20459;-38
2021/04/21 02:46:24;;;;;;;2.08;0.80;;;11.70;24.60;;;;;;4371480;32;20151;-37
2021/04/21 02:49:03;;;;;;;5.40;1.45;;;11.80;24.60;;;;;;4371925;32;20458;-36
2021/04/21 02:51:45;;;;;;;4.55;0.95;;;11.80;24.50;;;;;;4374065;32;20129;-39
2021/04/21 02:54:21;;;;;;;1.55;0.90;;;11.80;24.40;;;;;;4344109;32;20101;-38
2021/04/21 02:57:05;;;;;;;3.15;1.37;;;11.90;24.40;;;;;;4356611;32;20074;-38
2021/04/21 02:59:42;;;;;;;3.05;1.15;;;11.80;24.40;;;;;;4343169;32;20082;-37
2021/04/21 03:02:22;;;;;;;3.60;1.30;;;11.90;24.40;;;;;;4342751;32;20093;-38
2021/04/21 03:05:15;;;;;;;3.60;1.70;;;11.90;24.40;;;;;;4342658;32;20631;-38
2021/04/21 03:07:41;;;;;;;5.32;1.70;;;12.00;24.30;;;;;;4354863;32;20620;-38
2021/04/21 03:10:14;;;;;;;6.57;2.20;;;12.10;24.20;;;;;;4355043;32;20090;-38
2021/04/21 03:12:47;;;;;;;1.92;0.70;;;12.10;24.10;;;;;;4342983;32;20110;-37
2021/04/21 03:15:18;;;;;;;9.50;1.25;;;12.00;23.90;;;;;;4345168;32;20199;-37
2021/04/21 03:17:44;;;;;;;5.75;1.73;;;12.00;24.00;;;;;;4357701;32;20066;-37
2021/04/21 03:20:14;;;;;;;3.87;1.75;;;12.10;24.10;;;;;;4345155;32;20059;-39
2021/04/21 03:22:40;;;;;;;2.50;1.30;;;12.10;24.20;;;;;;4347151;32;20078;-37
2021/04/21 03:25:19;;;;;;;6.60;1.83;;;12.10;24.00;;;;;;4371393;32;20097;-38
2021/04/21 03:27:52;;;;;;;9.10;1.48;;;12.10;23.90;;;;;;4389869;32;20077;-38
2021/04/21 03:30:21;;;;;;;4.72;1.62;;;12.10;23.80;;;;;;4376975;32;20101;-39
2021/04/21 03:32:52;;;;;;;4.35;1.83;;;12.20;23.70;;;;;;4390214;32;20054;-39
2021/04/21 03:35:19;;;;;;;3.92;0.93;;;12.20;23.70;;;;;;4388559;32;20112;-38
2021/04/21 03:38:10;;;;;;;4.10;1.60;;;12.20;23.60;;;;;;4375795;32;20069;-39
2021/04/21 03:40:40;;;;;;;4.07;1.12;;;12.20;23.70;;;;;;4388755;32;20080;-38
2021/04/21 03:43:08;;;;;;;5.93;1.20;;;12.30;23.60;;;;;;4389993;32;20116;-39
2021/04/21 03:45:34;;;;;;;3.80;1.35;;;12.40;23.60;;;;;;4389578;32;20143;-39
2021/04/21 03:48:02;;;;;;;3.60;1.30;;;12.40;23.30;;;;;;4389883;32;20076;-38
2021/04/21 03:50:28;;;;;;;6.45;1.65;;;12.50;23.30;;;;;;4389487;32;20582;-36
2021/04/21 03:53:08;;;;;;;5.90;2.10;;;12.50;23.00;;;;;;4388151;32;20178;-38
2021/04/21 03:55:35;;;;;;;5.30;1.75;;;12.50;22.90;;;;;;4389742;32;20051;-36
2021/04/21 03:58:10;;;;;;;3.03;1.37;;;12.50;22.80;;;;;;4389635;32;20521;-39
2021/04/21 04:00:41;;;;;;;5.10;1.30;;;12.60;22.80;;;;;;4389276;32;20085;-37
2021/04/21 04:03:15;;;;;;;5.37;1.50;;;12.70;22.80;;;;;;4388134;32;20560;-39
2021/04/21 04:06:05;;;;;;;9.00;1.77;;;12.80;22.70;;;;;;4375551;32;20149;-39
2021/04/21 04:09:12;;;;;;;12.00;2.78;;;12.90;22.60;;;;;;4377363;32;20081;-38
2021/04/21 04:11:45;;;;;;;2.72;1.87;;;13.00;22.70;;;;;;4388282;32;20077;-38
2021/04/21 04:14:24;;;;;;;5.85;1.55;;;13.00;22.60;;;;;;4388057;32;20123;-39
2021/04/21 04:16:56;;;;;;;5.03;1.75;;;13.10;22.50;;;;;;4389304;32;20074;-38
2021/04/21 04:19:22;;;;;;;3.70;2.00;;;13.20;22.40;;;;;;4389675;32;20494;-37
2021/04/21 04:22:10;;;;;;;13.25;3.15;;;13.30;22.00;;;;;;4389273;32;20072;-38
2021/04/21 04:24:56;;;;;;;5.12;2.10;;;13.30;22.00;;;;;;4373223;32;20086;-39
2021/04/21 04:27:28;;;;;;;6.05;2.30;;;13.40;22.00;;;;;;4371991;32;20153;-39
2021/04/21 04:29:58;;;;;;;6.75;2.42;;;13.40;22.00;;;;;;4372338;32;20608;-39
2021/04/21 04:32:27;;;;;;;4.82;2.80;;;13.40;22.00;;;;;;4372502;32;20146;-39
2021/04/21 04:34:55;;;;;;;8.30;2.72;;;13.50;22.00;;;;;;4372692;32;20143;-39
2021/04/21 04:37:24;;;;;;;6.15;2.12;;;13.50;22.00;;;;;;4374235;32;20093;-39
2021/04/21 04:39:51;;;;;;;11.45;3.22;;;13.50;21.80;;;;;;4372278;32;20482;-39
2021/04/21 04:42:18;;;;;;;2.97;1.52;;;13.50;21.90;;;;;;4373786;32;20133;-39
2021/04/21 04:44:46;;;;;;;2.95;1.58;;;13.40;21.80;;;;;;4373496;32;20085;-39
2021/04/21 04:47:20;;;;;;;4.15;2.05;;;13.50;21.80;;;;;;4373708;32;20564;-38
2021/04/21 04:50:04;;;;;;;12.25;5.05;;;13.50;21.90;;;;;;4372591;32;20097;-36
2021/04/21 04:52:34;;;;;;;11.12;4.03;;;13.50;21.70;;;;;;4372725;32;20074;-38
2021/04/21 04:55:01;;;;;;;9.25;4.93;;;13.50;21.60;;;;;;4373520;32;20073;-38
2021/04/21 04:57:32;;;;;;;8.65;4.10;;;13.40;21.70;;;;;;4373969;32;20481;-38
2021/04/21 05:00:10;;;;;;;9.23;4.20;;;13.40;21.60;;;;;;4373695;32;20159;-37
2021/04/21 05:03:01;;;;;;;15.75;6.20;;;13.40;21.50;;;;;;4373567;32;20165;-37
2021/04/21 05:05:28;;;;;;;6.07;2.62;;;13.30;21.50;;;;;;4372263;32;20526;-38
2021/04/21 05:08:11;;;;;;;13.60;4.37;;;13.30;21.60;;;;;;4371366;32;20071;-39
2021/04/21 05:10:42;;;;;;;14.73;7.18;;;13.30;21.50;;;;;;4371870;32;20055;-37
2021/04/21 05:13:13;;;;;;;17.95;7.10;;;13.40;21.40;;;;;;4371916;32;20105;-38
2021/04/21 05:15:39;;;;;;;11.77;5.20;;;13.30;21.60;;;;;;4359847;32;20054;-37
2021/04/21 05:18:26;;;;;;;14.87;4.57;;;13.40;22.30;;;;;;4373230;32;20559;-38
2021/04/21 05:21:31;;;;;;;7.15;3.80;;;13.40;21.80;;;;;;4373452;32;20074;-38
2021/04/21 05:24:50;;;;;;;5.90;3.40;;;13.50;21.70;;;;;;4373326;32;20474;-39
2021/04/21 05:28:12;;;;;;;7.62;3.37;;;13.50;21.40;;;;;;4372899;32;20151;-39
2021/04/21 05:31:06;;;;;;;8.05;3.53;;;13.40;21.50;;;;;;4372966;32;20684;-38
2021/04/21 05:34:13;;;;;;;11.27;4.28;;;13.40;21.70;;;;;;4373082;32;20466;-38
2021/04/21 05:37:28;;;;;;;8.63;4.40;;;13.50;21.70;;;;;;4361643;32;20612;-38
2021/04/21 05:40:32;;;;;;;8.23;3.55;;;13.50;21.70;;;;;;4354409;32;20073;-38
2021/04/21 05:43:32;;;;;;;10.07;4.70;;;13.50;21.70;;;;;;4373152;32;20105;-39
2021/04/21 05:46:39;;;;;;;14.35;4.40;;;13.60;21.70;;;;;;4373188;32;20269;-40
2021/04/21 05:49:47;;;;;;;19.05;5.93;;;13.60;21.70;;;;;;4373211;32;20068;-38
2021/04/21 05:52:29;;;;;;;5.47;2.70;;;13.50;21.70;;;;;;4371708;32;20079;-36
2021/04/21 05:55:14;;;;;;;11.43;5.45;;;13.50;21.70;;;;;;4371394;32;20070;-38
2021/04/21 05:58:36;;;;;;;4.20;2.92;;;13.50;21.70;;;;;;4373278;32;20078;-38
2021/04/21 06:01:34;;;;;;;7.82;3.30;;;13.50;21.80;;;;;;4372724;32;20066;-35
2021/04/21 06:04:01;;;;;;;6.20;3.45;;;13.50;21.80;;;;;;4374745;32;20155;-39
2021/04/21 06:06:29;;;;;;;11.75;5.62;;;13.40;22.00;;;;;;4373144;32;20070;-38
2021/04/21 06:08:55;;;;;;;14.68;4.95;;;13.40;21.90;;;;;;4372836;32;20552;-37
2021/04/21 06:11:31;;;;;;;9.80;4.03;;;13.40;22.00;;;;;;4359090;32;20141;-39
2021/04/21 06:14:00;;;;;;;11.70;4.90;;;13.50;22.10;;;;;;4373008;32;20158;-38
2021/04/21 06:16:28;;;;;;;11.68;3.17;;;13.60;21.80;;;;;;4373055;32;20058;-37
2021/04/21 06:19:00;;;;;;;6.37;3.05;;;13.70;21.90;;;;;;4371468;32;20514;-38
2021/04/21 06:21:29;;;;;;;11.55;4.90;;;13.70;21.70;;;;;;4372454;32;20070;-39
2021/04/21 06:23:57;;;;;;;4.70;2.33;;;13.80;21.80;;;;;;4372642;32;20098;-38
2021/04/21 06:26:31;;;;;;;12.80;5.43;;;13.80;21.60;;;;;;4372988;32;20065;-38
2021/04/21 06:29:06;;;;;;;16.50;5.40;;;13.70;21.50;;;;;;4372494;32;20518;-35
2021/04/21 06:31:43;;;;;;;4.68;2.42;;;13.80;21.70;;;;;;4372741;32;20695;-38
2021/04/21 06:34:11;;;;;;;8.60;2.55;;;13.70;21.50;;;;;;4371704;32;20159;-40
2021/04/21 06:36:46;;;;;;;6.87;3.75;;;13.70;21.50;;;;;;4372750;32;20155;-38
2021/04/21 06:39:17;;;;;;;;;;;13.70;21.40;;;;;;4372945;32;20085;-38
2021/04/21 06:41:44;;;;;;;5.90;1.95;;;13.60;21.60;;;;;;4372643;32;19956;-39
2021/04/21 06:44:14;;;;;;;3.97;1.87;;;13.60;21.70;;;;;;4372442;32;20100;-38
2021/04/21 06:46:41;;;;;;;7.05;3.08;;;13.50;21.50;;;;;;4370848;32;20498;-39
2021/04/21 06:49:07;;;;;;;9.40;3.70;;;13.40;21.80;;;;;;4344055;32;20158;-38
2021/04/21 06:51:35;;;;;;;8.13;2.35;;;13.40;22.00;;;;;;4358017;32;20128;-39
2021/04/21 06:54:05;;;;;;;6.45;3.55;;;13.30;22.10;;;;;;4358074;32;20076;-38
2021/04/21 06:56:34;;;;;;;9.63;4.40;;;13.40;22.30;;;;;;4345918;32;20213;-38
2021/04/21 06:59:02;;;;;;;7.47;3.85;;;13.40;22.30;;;;;;4346220;32;20085;-38
2021/04/21 07:01:28;;;;;;;14.25;5.15;;;13.40;22.30;;;;;;4357895;32;20593;-35
2021/04/21 07:04:10;;;;;;;19.08;7.60;;;13.40;22.60;;;;;;4345571;32;20086;-39
2021/04/21 07:06:42;;;;;;;12.43;3.62;;;13.40;22.40;;;;;;4346611;32;20066;-35
2021/04/21 07:09:16;;;;;;;11.25;3.97;;;13.30;22.50;;;;;;4357952;32;20077;-39
2021/04/21 07:11:43;;;;;;;4.30;2.70;;;13.30;22.60;;;;;;4357607;32;20169;-39
2021/04/21 07:14:10;;;;;;;11.27;2.33;;;13.30;22.70;;;;;;4357508;32;20081;-38
2021/04/21 07:16:39;;;;;;;8.20;3.22;;;13.30;22.80;;;;;;4357293;32;20136;-35
2021/04/21 07:19:12;;;;;;;6.50;2.72;;;13.30;23.10;;;;;;4345570;32;20073;-37
2021/04/21 07:21:40;;;;;;;5.22;1.50;;;13.30;24.50;;;;;;4357451;32;20139;-37
2021/04/21 07:24:10;;;;;;;8.00;2.53;;;13.20;24.70;;;;;;4355934;32;20070;-39
2021/04/21 07:26:45;;;;;;;8.88;3.70;;;13.20;25.00;;;;;;4353731;32;20579;-37
2021/04/21 07:29:22;;;;;;;14.82;3.62;;;13.20;25.40;;;;;;4373463;32;20114;-39
2021/04/21 07:31:49;;;;;;;6.20;2.03;;;13.10;25.30;;;;;;4373365;32;20073;-38
2021/04/21 07:34:30;;;;;;;25.83;4.68;;;13.00;25.50;;;;;;4375027;32;20499;-38
2021/04/21 07:36:57;;;;;;;10.27;2.50;;;13.00;25.70;;;;;;4374369;32;20202;-39
2021/04/21 07:39:35;;;;;;;15.00;3.80;;;13.00;26.10;;;;;;4373286;32;20054;-38
2021/04/21 07:42:03;;;;;;;6.18;2.78;;;12.90;26.70;;;;;;4374894;32;20566;-37
2021/04/21 07:44:49;;;;;;;4.45;3.03;;;12.90;26.80;;;;;;4374548;32;20074;-39
2021/04/21 07:47:15;;;;;;;;;;;12.90;27.70;;;;;;4374875;32;20077;-37
2021/04/21 07:49:48;;;;;;;13.02;3.47;;;12.90;28.50;;;;;;4374425;32;19973;-38
2021/04/21 07:52:28;;;;;;;6.05;2.17;;;12.80;28.00;;;;;;4373176;32;20148;-37
2021/04/21 07:55:11;;;;;;;6.68;1.75;;;12.80;27.90;;;;;;4374222;32;20074;-37
2021/04/21 07:57:39;;;;;;;11.73;3.83;;;12.90;28.00;;;;;;4374802;32;20155;-37
2021/04/21 08:00:08;;;;;;;6.53;2.20;;;12.80;28.10;;;;;;4373568;32;20062;-39
2021/04/21 08:02:35;;;;;;;9.70;2.47;;;12.80;27.90;;;;;;4375680;32;20082;-37
2021/04/21 08:05:10;;;;;;;16.10;2.45;;;12.80;28.10;;;;;;4376686;32;20649;-39
2021/04/21 08:07:56;;;;;;;4.50;2.10;;;12.80;28.10;;;;;;4374496;32;20526;-37
2021/04/21 08:10:34;;;;;;;9.32;4.12;;;12.70;28.40;;;;;;4372812;32;20072;-37
2021/04/21 08:13:01;;;;;;;6.10;3.75;;;12.60;28.80;;;;;;4374313;32;20100;-37
2021/04/21 08:15:36;;;;;;;5.50;1.73;;;12.50;28.80;;;;;;4373830;32;20508;-37
2021/04/21 08:18:12;;;;;;;10.93;2.97;;;12.40;28.80;;;;;;4372299;32;20119;-38
2021/04/21 08:20:43;;;;;;;11.18;2.42;;;12.40;29.20;;;;;;4374245;32;20469;-37
2021/04/21 08:23:10;;;;;;;3.80;1.45;;;12.40;29.40;;;;;;4379309;32;20064;-37
2021/04/21 08:25:37;;;;;;;11.75;3.90;;;12.30;29.60;;;;;;4387632;32;20449;-38
2021/04/21 08:28:04;;;;;;;4.82;1.83;;;12.40;29.90;;;;;;4389126;32;20053;-37
2021/04/21 08:30:32;;;;;;;6.18;3.05;;;12.30;30.20;;;;;;4389012;32;20061;-37
2021/04/21 08:32:58;;;;;;;7.05;2.67;;;12.20;30.90;;;;;;4387631;32;20077;-38
2021/04/21 08:35:25;;;;;;;18.90;4.50;;;12.20;31.90;;;;;;4388928;32;20068;-39
2021/04/21 08:37:51;;;;;;;7.97;3.33;;;12.20;32.20;;;;;;4389019;32;20076;-37
2021/04/21 08:40:24;;;;;;;8.13;2.62;;;12.10;32.90;;;;;;4389022;32;20165;-40
2021/04/21 08:42:58;;;;;;;8.60;2.35;;;12.10;33.60;;;;;;4388839;32;20067;-38
2021/04/21 08:45:25;;;;;;;10.13;3.85;;;12.00;34.40;;;;;;4388782;32;20081;-34
2021/04/21 08:47:52;;;;;;;10.68;3.45;;;12.00;35.20;;;;;;4388703;32;20533;-37
2021/04/21 08:50:18;;;;;;;7.07;1.90;;;11.80;36.10;;;;;;4386664;32;20141;-37
2021/04/21 08:52:55;;;;;;;14.23;3.22;;;11.60;37.00;;;;;;4386627;32;20173;-36
2021/04/21 08:55:26;;;;;;;6.68;2.05;;;11.50;37.10;;;;;;4388131;32;20084;-37
2021/04/21 08:57:53;;;;;;;5.68;2.72;;;11.30;38.00;;;;;;4388230;32;20731;-36
2021/04/21 09:00:20;;;;;;;16.25;4.32;;;11.10;38.30;;;;;;4388559;32;20073;-36
2021/04/21 09:02:47;;;;;;;9.93;2.58;;;10.90;38.50;;;;;;4388912;32;20150;-36
2021/04/21 09:05:16;;;;;;;13.98;3.78;;;10.80;40.00;;;;;;4388708;32;20555;-33
2021/04/21 09:07:43;;;;;;;14.68;4.15;;;10.70;39.80;;;;;;4388663;32;20141;-36
2021/04/21 09:10:11;;;;;;;9.30;3.67;;;10.40;39.90;;;;;;4389045;32;20069;-37
2021/04/21 09:12:38;;;;;;;12.27;3.50;;;10.20;40.90;;;;;;4388116;32;20532;-38
2021/04/21 09:15:06;;;;;;;10.35;2.95;;;10.10;40.70;;;;;;4387278;32;20169;-38
2021/04/21 09:17:33;;;;;;;15.38;5.30;;;10.10;40.80;;;;;;4388206;32;20066;-39
2021/04/21 09:19:59;;;;;;;12.63;3.70;;;9.90;42.20;;;;;;4387998;32;20077;-37
2021/04/21 09:22:26;;;;;;;10.13;2.03;;;9.80;43.00;;;;;;4374022;32;20065;-38
2021/04/21 09:24:59;;;;;;;7.37;2.83;;;9.80;42.60;;;;;;4373236;32;20072;-37
2021/04/21 09:27:34;;;;;;;10.70;2.95;;;9.70;43.30;;;;;;4373281;32;20681;-37
2021/04/21 09:30:10;;;;;;;3.10;1.37;;;9.80;43.50;;;;;;4372965;32;20105;-39
2021/04/21 09:32:52;;;;;;;9.38;1.92;;;9.90;44.00;;;;;;4373347;32;20050;-38
2021/04/21 09:35:40;;;;;;;7.45;2.65;;;9.90;44.00;;;;;;4374201;32;20078;-37
2021/04/21 09:38:17;;;;;;;4.30;2.13;;;10.00;44.30;;;;;;4374800;32;20444;-37
2021/04/21 09:40:49;;;;;;;11.10;3.40;;;10.00;44.50;;;;;;4373519;32;20147;-37
2021/04/21 09:43:22;;;;;;;8.13;1.08;;;10.00;45.10;;;;;;4373287;32;20093;-38
2021/04/21 09:46:03;;;;;;;5.10;1.67;;;10.00;45.30;;;;;;4372541;32;20078;-37
2021/04/21 09:48:35;;;;;;;7.35;1.37;;;10.10;45.70;;;;;;4371755;32;20059;-35
2021/04/21 09:51:04;;;;;;;10.10;4.43;;;10.10;45.10;;;;;;4373000;32;20062;-35
2021/04/21 09:53:36;;;;;;;8.13;2.73;;;10.00;45.10;;;;;;4372909;32;20086;-35
2021/04/21 09:56:25;;;;;;;9.02;2.17;;;10.00;45.00;;;;;;4371714;32;20469;-36
2021/04/21 09:58:56;;;;;;;5.10;1.33;;;10.00;45.40;;;;;;4372889;32;20105;-34
2021/04/21 10:01:29;;;;;;;4.97;1.70;;;9.90;45.10;;;;;;4371478;32;20141;-36
2021/04/21 10:04:26;;;;;;;6.35;1.37;;;9.80;46.10;;;;;;4372422;32;20157;-35
2021/04/21 10:06:54;;;;;;;5.10;1.40;;;9.90;46.60;;;;;;4372886;32;20242;-37
2021/04/21 10:09:37;;;;;;;4.10;1.47;;;9.80;46.00;;;;;;4372918;32;20158;-35
2021/04/21 10:12:21;;;;;;;4.18;1.83;;;9.80;46.40;;;;;;4373111;32;20074;-36
2021/04/21 10:15:09;;;;;;;7.27;2.40;;;9.80;45.80;;;;;;4372948;32;20063;-38
2021/04/21 10:17:40;;;;;;;5.50;2.20;;;9.80;45.60;;;;;;4371153;32;20074;-38
2021/04/21 10:20:12;;;;;;;11.43;1.73;;;9.70;45.90;;;;;;4371565;32;20506;-38
2021/04/21 10:22:41;;;;;;;11.50;2.03;;;9.70;46.30;;;;;;4374261;32;20085;-38
2021/04/21 10:25:08;;;;;;;6.55;2.87;;;9.70;46.50;;;;;;4390638;32;20470;-37
2021/04/21 10:27:35;;;;;;;9.52;2.47;;;9.70;46.70;;;;;;4390910;32;20077;-38
2021/04/21 10:30:06;;;;;;;9.50;2.60;;;9.60;46.90;;;;;;4390791;32;20138;-38
2021/04/21 10:32:33;;;;;;;9.33;2.63;;;9.60;47.50;;;;;;4389582;32;20154;-37
2021/04/21 10:35:00;;;;;;;9.00;2.75;;;9.60;47.50;;;;;;4391032;32;20058;-38
2021/04/21 10:37:27;;;;;;;9.47;3.70;;;9.50;47.90;;;;;;4390533;32;20173;-35
2021/04/21 10:39:56;;;;;;;13.33;3.50;;;9.50;48.40;;;;;;4388984;32;20116;-36
2021/04/21 10:42:23;;;;;;;4.87;1.70;;;9.40;48.70;;;;;;4389084;32;20135;-36
2021/04/21 10:44:52;;;;;;;9.00;3.25;;;9.30;49.10;;;;;;4388558;32;20058;-35
2021/04/21 10:47:25;;;;;;;14.57;2.50;;;9.30;49.50;;;;;;4390781;32;20160;-36
2021/04/21 10:50:04;;;;;;;10.50;3.03;;;9.10;49.80;;;;;;4390722;32;20066;-34
2021/04/21 10:52:30;;;;;;;13.23;4.10;;;9.10;50.10;;;;;;4389181;32;20062;-35
2021/04/21 10:55:06;;;;;;;12.73;3.33;;;9.10;50.40;;;;;;4389929;32;20178;-34
2021/04/21 10:57:56;;;;;;;14.90;2.90;;;9.00;50.30;;;;;;4390425;32;20109;-35
2021/04/21 11:00:32;;;;;;;12.93;3.70;;;8.90;50.80;;;;;;4389991;32;20066;-34
2021/04/21 11:03:11;;;;;;;12.75;3.83;;;8.90;51.30;;;;;;4390217;32;20131;-34
2021/04/21 11:05:38;;;;;;;12.05;3.62;;;9.00;50.80;;;;;;4390425;32;20577;-37
2021/04/21 11:08:16;;;;;;;8.83;3.20;;;8.90;51.00;;;;;;4390438;32;20538;-35
2021/04/21 11:11:04;;;;;;;12.40;4.15;;;8.90;51.30;;;;;;4389173;32;20066;-35
2021/04/21 11:13:42;;;;;;;5.10;2.93;;;8.70;51.90;;;;;;4390062;32;20077;-35
2021/04/21 11:16:12;;;;;;;12.07;4.13;;;8.70;51.90;;;;;;4390247;32;20505;-36
2021/04/21 11:18:40;;;;;;;20.90;4.27;;;8.70;51.20;;;;;;4389982;32;20101;-35
2021/04/21 11:21:10;;;;;;;16.33;5.07;;;8.70;51.80;;;;;;4390122;32;20173;-34
2021/04/21 11:24:02;;;;;;;7.57;2.67;;;8.80;51.70;;;;;;4382769;32;20068;-35
2021/04/21 11:26:30;;;;;;;10.53;2.30;;;8.80;51.40;;;;;;4374571;32;20069;-35
2021/04/21 11:29:08;;;;;;;4.83;1.00;;;8.80;51.10;;;;;;4342259;32;20184;-35
2021/04/21 11:31:48;;;;;;;13.55;2.37;;;8.90;50.80;;;;;;4342441;33;20166;-36
2021/04/21 11:34:28;;;;;;;8.43;1.67;;;9.00;50.50;;;;;;4342760;32;20062;-37
2021/04/21 11:37:08;;;;;;;12.97;1.93;;;9.10;50.10;;;;;;4342671;32;20081;-37
2021/04/21 11:42:41;;;;;;;6.40;2.53;;;9.20;50.50;;;;;;4342463;33;20582;-39
2021/04/21 11:45:29;;;;;;;12.07;3.57;;;9.10;50.40;;;;;;4342212;33;20170;-39
2021/04/21 11:48:03;;;;;;;9.05;3.05;;;9.20;50.80;;;;;;4342305;33;20077;-38
2021/04/21 11:50:41;;;;;;;14.77;4.83;;;9.20;50.80;;;;;;4342529;33;20063;-38
2021/04/21 11:53:14;;;;;;;13.13;4.37;;;9.20;51.00;;;;;;4342369;32;20071;-38
2021/04/21 11:55:54;;;;;;;7.87;2.63;;;9.10;51.30;;;;;;4342183;32;20156;-39
2021/04/21 11:58:38;;;;;;;5.97;3.00;;;9.10;51.20;;;;;;4342607;32;20079;-39
2021/04/21 12:01:12;;;;;;;2.27;1.77;;;9.10;52.00;;;;;;4370979;32;20126;-38
2021/04/21 12:03:40;;;;;;;7.23;2.00;;;9.10;51.40;;;;;;4374291;32;20479;-41
2021/04/21 12:06:11;;;;;;;3.33;1.00;;;9.20;51.20;;;;;;4373768;32;20066;-41
2021/04/21 12:08:48;;;;;;;8.50;2.13;;;9.20;51.30;;;;;;4374352;32;20077;-41
2021/04/21 12:11:21;;;;;;;6.10;2.53;;;9.20;51.30;;;;;;4374178;32;20086;-41
2021/04/21 12:13:48;;;;;;;4.53;1.53;;;9.20;51.40;;;;;;4360581;32;20555;-40
2021/04/21 12:16:23;;;;;;;5.93;2.07;;;9.30;51.50;;;;;;4372318;32;20649;-42
2021/04/21 12:18:50;;;;;;;10.80;2.03;;;9.30;51.40;;;;;;4374467;32;20562;-40
2021/04/21 12:21:17;;;;;;;4.85;2.55;;;9.30;51.00;;;;;;4373897;32;20551;-40
2021/04/21 12:23:51;;;;;;;4.17;1.50;;;9.30;51.40;;;;;;4382304;32;20050;-40
2021/04/21 12:26:26;;;;;;;3.57;2.30;;;9.30;51.20;;;;;;4389139;32;20470;-40
2021/04/21 12:28:59;;;;;;;;;;;9.30;51.50;;;;;;4390112;32;20476;-41
2021/04/21 12:31:26;;;;;;;2.77;1.03;;;9.30;51.20;;;;;;4390146;32;19961;-38
2021/04/21 12:33:57;;;;;;;1.90;0.97;;;9.40;51.40;;;;;;4390831;32;20104;-39
2021/04/21 12:36:30;;;;;;;4.40;1.13;;;9.30;51.60;;;;;;4377956;32;20092;-39
2021/04/21 12:39:12;;;;;;;4.97;1.92;;;9.30;51.70;;;;;;4389154;32;20078;-37
2021/04/21 12:41:41;;;;;;;4.30;2.08;;;9.30;51.80;;;;;;4388694;32;20058;-40
2021/04/21 12:44:27;;;;;;;6.65;3.08;;;9.30;52.10;;;;;;4388769;32;20081;-43
2021/04/21 12:46:55;;;;;;;5.83;2.37;;;9.20;52.50;;;;;;4388882;32;20065;-39
2021/04/21 12:49:37;;;;;;;8.30;1.45;;;9.20;52.70;;;;;;4388899;32;20431;-42
2021/04/21 12:52:06;;;;;;;1.95;1.00;;;9.20;52.90;;;;;;4388588;32;20149;-39
2021/04/21 12:54:48;;;;;;;9.33;2.30;;;9.20;53.00;;;;;;4388419;32;20142;-42
2021/04/21 12:57:23;;;;;;;3.95;0.77;;;9.20;53.20;;;;;;4388557;32;20085;-44
2021/04/21 12:59:58;;;;;;;3.83;1.90;;;9.20;53.40;;;;;;4385659;32;20089;-42
2021/04/21 13:02:45;;;;;;;6.20;2.33;;;9.10;53.90;;;;;;4386185;32;20072;-43
2021/04/21 13:05:12;;;;;;;7.95;1.30;;;9.10;54.10;;;;;;4385848;32;20653;-41
2021/04/21 13:07:39;;;;;;;6.53;2.60;;;9.10;54.30;;;;;;4385651;32;20174;-41
2021/04/21 13:10:10;;;;;;;5.57;1.12;;;9.10;54.30;;;;;;4360763;32;20071;-42
2021/04/21 13:12:37;;;;;;;6.68;1.75;;;9.10;54.40;;;;;;4386006;32;20093;-42
2021/04/21 13:15:23;;;;;;;5.65;2.20;;;9.20;54.30;;;;;;4360717;32;20078;-41
2021/04/21 13:17:55;;;;;;;7.07;1.92;;;9.20;54.40;;;;;;4385732;32;20093;-40
2021/04/21 13:20:46;;;;;;;4.60;1.73;;;9.30;54.40;;;;;;4385846;32;20088;-39
2021/04/21 13:23:24;;;;;;;3.83;1.83;;;9.30;54.40;;;;;;4380640;32;20106;-40
2021/04/21 13:25:54;;;;;;;7.25;1.02;;;9.30;54.50;;;;;;4370476;32;20220;-38
2021/04/21 13:28:21;;;;;;;4.00;1.57;;;9.30;54.50;;;;;;4370681;32;20072;-38
2021/04/21 13:31:29;;;;;;;3.03;1.17;;;9.30;54.60;;;;;;4370474;32;20585;-38
2021/04/21 13:33:56;;;;;;;12.37;1.90;;;9.30;54.60;;;;;;4296974;33;20075;-38
2021/04/21 13:36:23;;;;;;;5.63;1.53;;;9.30;54.60;;;;;;4298840;33;20066;-39
2021/04/21 13:38:49;;;;;;;9.48;3.05;;;9.20;54.50;;;;;;4311415;33;20156;-40